createdAt,value
2022-12-12T00:02:00.715Z,98990.38
2022-12-12T00:07:02.370Z,98987.28
2022-12-12T00:12:05.337Z,98988.34
2022-12-12T00:17:07.006Z,98993.31
2022-12-12T00:22:09.175Z,98993.94
2022-12-12T00:27:10.923Z,98988.13
2022-12-12T00:32:12.592Z,98987.97
2022-12-12T00:37:14.271Z,98976.63
2022-12-12T00:42:16.784Z,98977.09
2022-12-12T00:47:18.470Z,98988.56
2022-12-12T00:52:20.261Z,98988.69
2022-12-12T00:57:21.931Z,98992.84
2022-12-12T01:02:28.073Z,98992.69
2022-12-12T01:07:30.238Z,98994.34
2022-12-12T01:12:32.095Z,99001.19
2022-12-12T01:17:37.839Z,99010.75
2022-12-12T01:22:39.526Z,98997.81
2022-12-12T01:27:42.046Z,98992.16
2022-12-12T01:32:43.695Z,98995.38
2022-12-12T01:37:45.551Z,99002.69
2022-12-12T01:42:48.050Z,98996.03
2022-12-12T01:47:49.700Z,99006.22
2022-12-12T01:52:51.390Z,99001.94
2022-12-12T01:57:54.917Z,99003.78
2022-12-12T02:02:57.084Z,99002.00
2022-12-12T02:08:01.440Z,99002.94
2022-12-12T02:13:08.095Z,99008.88
2022-12-12T02:18:18.466Z,99001.16
2022-12-12T02:24:05.496Z,99002.75
2022-12-12T02:29:31.647Z,98997.06
2022-12-12T02:35:00.686Z,98999.38
2022-12-12T02:40:24.086Z,99001.78
2022-12-12T02:45:31.666Z,99002.63
2022-12-12T02:50:35.307Z,98995.34
2022-12-12T02:55:37.137Z,98998.53
2022-12-12T03:00:54.408Z,98999.06
2022-12-12T03:06:23.797Z,99000.00
2022-12-12T03:11:56.364Z,98999.69
2022-12-12T03:16:57.981Z,98999.66
2022-12-12T03:22:24.014Z,98979.47
2022-12-12T03:28:05.256Z,98979.56
2022-12-12T03:33:13.918Z,98985.06
2022-12-12T03:38:26.758Z,98985.78
2022-12-12T03:43:33.903Z,98992.00
2022-12-12T03:48:45.815Z,98990.50
2022-12-12T03:53:53.669Z,98988.00
2022-12-12T03:59:15.022Z,98986.81
2022-12-12T04:04:32.782Z,98989.63
2022-12-12T04:09:53.333Z,98992.56
2022-12-12T04:15:00.868Z,98986.59
2022-12-12T04:20:35.499Z,98989.84
2022-12-12T04:26:20.136Z,98988.94
2022-12-12T04:31:27.117Z,98991.19
2022-12-12T04:36:31.545Z,98999.72
2022-12-12T04:41:37.252Z,99004.25
2022-12-12T04:46:41.382Z,99003.84
2022-12-12T04:51:47.349Z,98998.28
2022-12-12T04:56:55.111Z,99004.59
2022-12-12T05:02:18.046Z,99005.63
2022-12-12T05:08:15.177Z,99013.88
2022-12-12T05:13:19.306Z,99005.53
2022-12-12T05:18:21.852Z,99022.16
2022-12-12T05:23:23.525Z,99023.09
2022-12-12T05:28:25.179Z,99025.53
2022-12-12T05:33:26.835Z,99024.00
2022-12-12T05:38:28.489Z,99032.16
2022-12-12T05:43:30.467Z,99034.78
2022-12-12T05:48:32.620Z,99025.59
2022-12-12T05:53:42.012Z,99039.41
2022-12-12T05:58:44.359Z,99050.88
2022-12-12T06:03:46.141Z,99040.44
2022-12-12T06:08:47.886Z,99031.41
2022-12-12T06:13:49.556Z,99042.97
2022-12-12T06:18:52.814Z,99050.88
2022-12-12T06:23:54.684Z,99040.66
2022-12-12T06:28:56.348Z,99059.91
2022-12-12T06:33:58.021Z,99054.69
2022-12-12T06:39:01.602Z,99068.59
2022-12-12T06:44:03.336Z,99070.56
2022-12-12T06:49:09.713Z,99073.75
2022-12-12T06:54:16.186Z,99078.16
2022-12-12T06:59:17.915Z,99080.69
2022-12-12T07:04:20.470Z,99079.00
2022-12-12T07:09:22.200Z,99081.75
2022-12-12T07:14:23.872Z,99095.00
2022-12-12T07:19:26.435Z,99099.41
2022-12-12T07:24:28.102Z,99114.16
2022-12-12T07:29:29.820Z,99112.25
2022-12-12T07:34:32.597Z,99113.63
2022-12-12T07:39:34.692Z,99129.13
2022-12-12T07:44:36.400Z,99121.53
2022-12-12T07:49:38.100Z,99130.56
2022-12-12T07:54:39.811Z,99121.09
2022-12-12T07:59:41.541Z,99130.69
2022-12-12T08:04:43.238Z,99140.53
2022-12-12T08:09:44.932Z,99142.22
2022-12-12T08:14:46.760Z,99139.53
2022-12-12T08:19:48.484Z,99143.31
2022-12-12T08:24:50.386Z,99149.09
2022-12-12T08:29:53.163Z,99145.91
2022-12-12T08:34:58.573Z,99158.28
2022-12-12T08:40:00.325Z,99153.38
2022-12-12T08:45:02.077Z,99156.81
2022-12-12T08:50:05.039Z,99152.03
2022-12-12T08:55:06.968Z,99165.72
2022-12-12T09:00:09.426Z,99172.88
2022-12-12T09:05:11.490Z,99182.53
2022-12-12T09:10:13.299Z,99185.28
2022-12-12T09:15:15.421Z,99180.53
2022-12-12T09:20:17.491Z,99190.81
2022-12-12T09:25:19.479Z,99187.94
2022-12-12T09:30:22.046Z,99188.09
2022-12-12T09:35:23.712Z,99195.72
2022-12-12T09:40:53.345Z,99198.91
2022-12-12T09:45:55.847Z,99193.00
2022-12-12T09:50:57.559Z,99197.00
2022-12-12T09:56:02.089Z,99205.44
2022-12-12T10:01:07.609Z,99192.25
2022-12-12T10:06:36.369Z,99198.38
2022-12-12T10:11:52.071Z,99188.66
2022-12-12T10:16:58.287Z,99193.75
2022-12-12T10:22:24.131Z,99198.78
2022-12-12T10:27:26.152Z,99202.59
2022-12-12T10:32:51.993Z,99202.81
2022-12-12T10:38:29.652Z,99203.81
2022-12-12T10:43:51.489Z,99208.16
2022-12-12T10:48:54.260Z,99220.94
2022-12-12T10:53:56.051Z,99216.34
2022-12-12T10:59:01.955Z,99209.88
2022-12-12T11:04:04.701Z,99211.38
2022-12-12T11:09:17.670Z,99203.09
2022-12-12T11:14:31.197Z,99208.16
2022-12-12T11:19:38.369Z,99195.06
2022-12-12T11:24:45.364Z,99200.31
2022-12-12T11:29:51.553Z,99202.78
2022-12-12T11:35:00.307Z,99211.06
2022-12-12T11:40:02.419Z,99214.47
2022-12-12T11:45:10.545Z,99210.69
2022-12-12T11:50:22.901Z,99216.38
2022-12-12T11:55:46.521Z,99203.75
2022-12-12T12:00:58.348Z,99209.03
2022-12-12T12:06:15.166Z,99205.22
2022-12-12T12:11:25.104Z,99199.97
2022-12-12T12:16:32.533Z,99199.03
2022-12-12T12:21:56.182Z,99202.09
2022-12-12T12:27:02.503Z,99198.91
2022-12-12T12:32:18.731Z,99195.81
2022-12-12T12:37:58.063Z,99207.69
2022-12-12T12:43:17.667Z,99205.53
2022-12-12T12:48:30.478Z,99207.31
2022-12-12T12:53:35.764Z,99207.06
2022-12-12T12:58:45.580Z,99211.16
2022-12-12T13:03:58.758Z,99218.25
2022-12-12T13:09:13.606Z,99208.03
2022-12-12T13:14:45.802Z,99218.00
2022-12-12T13:19:53.504Z,99220.72
2022-12-12T13:25:22.949Z,99220.63
2022-12-12T13:30:36.888Z,99233.31
2022-12-12T13:35:51.128Z,99236.44
2022-12-12T13:41:06.383Z,99238.16
2022-12-12T13:46:27.330Z,99254.09
2022-12-12T13:51:31.040Z,99245.84
2022-12-12T13:56:57.609Z,99254.66
2022-12-12T14:02:19.156Z,99246.44
2022-12-12T14:07:25.678Z,99255.84
2022-12-12T14:12:32.031Z,99278.75
2022-12-12T14:17:42.867Z,99275.75
2022-12-12T14:22:44.878Z,99284.56
2022-12-12T14:27:49.335Z,99288.59
2022-12-12T14:33:18.131Z,99290.19
2022-12-12T14:38:41.455Z,99293.06
2022-12-12T14:44:37.260Z,99299.59
2022-12-12T14:49:17.407Z,99294.72
2022-12-12T14:54:22.306Z,99293.63
2022-12-12T14:59:29.591Z,99298.06
2022-12-12T15:04:34.871Z,99308.94
2022-12-12T15:09:39.868Z,99308.31
2022-12-12T15:15:02.044Z,99320.03
2022-12-12T15:20:17.459Z,99330.34
2022-12-12T15:25:25.308Z,99344.84
2022-12-12T15:30:45.593Z,99345.69
2022-12-12T15:36:01.501Z,99350.81
2022-12-12T15:41:11.183Z,99347.72
2022-12-12T15:46:15.682Z,99350.66
2022-12-12T15:51:24.593Z,99342.06
2022-12-12T15:56:31.608Z,99357.03
2022-12-12T16:01:33.415Z,99360.41
2022-12-12T16:06:44.475Z,99369.97
2022-12-12T16:11:50.305Z,99370.19
2022-12-12T16:17:04.266Z,99375.22
2022-12-12T16:22:31.436Z,99378.53
2022-12-12T16:27:33.893Z,99383.19
2022-12-12T16:32:36.049Z,99388.47
2022-12-12T16:37:37.711Z,99393.88
2022-12-12T16:42:39.462Z,99389.09
2022-12-12T16:47:41.143Z,99400.81
2022-12-12T16:52:42.892Z,99405.81
2022-12-12T16:57:44.546Z,99406.97
2022-12-12T17:02:46.408Z,99409.66
2022-12-12T17:07:48.130Z,99410.69
2022-12-12T17:12:51.175Z,99407.78
2022-12-12T17:17:53.908Z,99415.44
2022-12-12T17:22:56.130Z,99424.63
2022-12-12T17:27:58.245Z,99423.59
2022-12-12T17:33:18.215Z,99411.69
2022-12-12T17:38:19.915Z,99413.19
2022-12-12T17:43:22.175Z,99421.63
2022-12-12T17:48:23.934Z,99428.13
2022-12-12T17:53:25.989Z,99433.03
2022-12-12T17:58:32.126Z,99434.75
2022-12-12T18:03:33.830Z,99438.22
2022-12-12T18:08:36.736Z,99438.03
2022-12-12T18:13:39.503Z,99432.88
2022-12-12T18:18:41.628Z,99435.09
2022-12-12T18:23:43.695Z,99430.69
2022-12-12T18:28:45.365Z,99443.00
2022-12-12T18:33:47.345Z,99440.19
2022-12-12T18:38:49.485Z,99450.06
2022-12-12T18:43:51.168Z,99449.69
2022-12-12T18:48:52.964Z,99451.44
2022-12-12T18:53:59.832Z,99449.41
2022-12-12T18:59:02.369Z,99454.75
2022-12-12T19:04:11.702Z,99454.19
2022-12-12T19:09:17.462Z,99457.47
2022-12-12T19:14:19.227Z,99460.97
2022-12-12T19:19:21.170Z,99461.31
2022-12-12T19:24:22.845Z,99451.63
2022-12-12T19:29:24.548Z,99447.69
2022-12-12T19:34:26.299Z,99458.75
2022-12-12T19:39:28.212Z,99444.88
2022-12-12T19:44:29.951Z,99450.88
2022-12-12T19:49:31.707Z,99465.91
2022-12-12T19:54:33.364Z,99456.66
2022-12-12T19:59:35.294Z,99468.03
2022-12-12T20:04:39.370Z,99466.69
2022-12-12T20:09:41.034Z,99464.38
2022-12-12T20:14:42.717Z,99467.81
2022-12-12T20:19:47.292Z,99466.47
2022-12-12T20:24:49.045Z,99466.91
2022-12-12T20:29:50.718Z,99468.03
2022-12-12T20:34:53.057Z,99455.00
2022-12-12T20:39:54.752Z,99450.94
2022-12-12T20:44:56.399Z,99457.53
2022-12-12T20:49:58.085Z,99469.03
2022-12-12T20:54:59.791Z,99467.03
2022-12-12T21:00:01.438Z,99469.50
2022-12-12T21:05:05.619Z,99478.81
2022-12-12T21:10:07.588Z,99467.13
2022-12-12T21:15:09.627Z,99471.19
2022-12-12T21:20:11.593Z,99469.69
2022-12-12T21:25:13.566Z,99471.84
2022-12-12T21:30:15.415Z,99474.41
2022-12-12T21:35:17.254Z,99480.78
2022-12-12T21:40:19.244Z,99490.84
2022-12-12T21:45:20.926Z,99495.63
2022-12-12T21:50:27.484Z,99479.44
2022-12-12T21:55:32.157Z,99480.59
2022-12-12T22:00:39.861Z,99478.25
2022-12-12T22:05:41.544Z,99488.19
2022-12-12T22:10:44.126Z,99494.28
2022-12-12T22:15:56.499Z,99485.75
2022-12-12T22:21:05.736Z,99485.47
2022-12-12T22:26:23.709Z,99475.59
2022-12-12T22:31:28.389Z,99470.63
2022-12-12T22:36:40.137Z,99470.25
2022-12-12T22:41:41.854Z,99460.09
2022-12-12T22:46:45.402Z,99467.63
2022-12-12T22:51:48.747Z,99470.47
2022-12-12T22:56:50.824Z,99463.44
2022-12-12T23:01:52.609Z,99464.38
2022-12-12T23:06:54.313Z,99467.84
2022-12-12T23:11:56.126Z,99466.16
2022-12-12T23:16:57.824Z,99470.28
2022-12-12T23:22:00.000Z,99469.25
2022-12-12T23:27:02.071Z,99460.03
2022-12-12T23:32:04.013Z,99463.16
2022-12-12T23:37:05.743Z,99473.00
2022-12-12T23:42:07.616Z,99468.88
2022-12-12T23:47:09.295Z,99457.06
2022-12-12T23:52:11.037Z,99467.94
2022-12-12T23:57:12.730Z,99469.34
